Flight Track Log - Related Links

Times and Time Zones

All times are in EDT time to prevent confusion due to time zone crossing. See the AWE759 flight status page for this flight to view local times or setup timezone preferences in your user account.

Time Position Orientation Groundspeed Altitude Reporting Facility
EDT Latitude Longitude Course Direction KTS MPH feet Rate Location/Type
Tue 07:08:53 PM 39.8567 -75.2833 229° Southwest 141 162 1,800  Level FlightAware ADS-B
Tue 07:09:05 PM 39.8513 -75.2899 223° Southwest 142 163 2,500 3,176 Climbing FlightAware ADS-B
Tue 07:09:10 PM 39.8484 -75.2932 221° Southwest 152 175 2,700 2,100 Climbing FlightAware ADS-B
Tue 07:09:25 PM 39.8391 -75.3031 219° Southwest 183 211 3,200 2,516 Climbing FlightAware ADS-B
Tue 07:09:41 PM 39.8281 -75.3149 219° Southwest 202 232 4,000 2,250 Climbing FlightAware ADS-B
Tue 07:09:57 PM 39.8157 -75.3276 218° Southwest 228 262 4,400 2,323 Climbing FlightAware ADS-B
Tue 07:10:12 PM 39.8021 -75.3410 217° Southwest 250 288 5,200 3,391 Climbing FlightAware ADS-B
Tue 07:10:20 PM 39.7948 -75.3480 216° Southwest 253 291 5,700 3,913 Climbing FlightAware ADS-B
Tue 07:10:35 PM 39.7803 -75.3608 214° Southwest 258 297 6,700 4,000 Climbing FlightAware ADS-B
Tue 07:10:50 PM 39.7640 -75.3740 212° Southwest 268 308 7,700 4,000 Climbing FlightAware ADS-B
Tue 07:11:05 PM 39.7477 -75.3864 210° Southwest 273 314 8,700 3,938 Climbing FlightAware ADS-B
Tue 07:11:22 PM 39.7299 -75.3997 210° Southwest 276 318 9,800 3,319 Climbing FlightAware ADS-B
Tue 07:11:52 PM 39.6968 -75.4261 212° Southwest 282 325 11,300 2,550 Climbing FlightAware ADS-B
Tue 07:12:02 PM 39.6840 -75.4335 204° Southwest 295 339 11,500 857 Climbing FlightAware ADS-B
Tue 07:12:13 PM 39.6686 -75.4383 193° South 306 352 11,600 600 Climbing FlightAware ADS-B
Tue 07:12:22 PM 39.6565 -75.4393 184° South 328 377 11,700 300 Climbing FlightAware ADS-B
Tue 07:12:53 PM 39.6045 -75.4333 175° South 376 433 11,800 197 Climbing FlightAware ADS-B
Tue 07:13:23 PM 39.5512 -75.4251 173° South 380 437 11,900 1,500 Climbing FlightAware ADS-B
Tue 07:13:53 PM 39.4988 -75.4177 174° South 380 437 13,300 3,000 Climbing FlightAware ADS-B
Tue 07:14:25 PM 39.4430 -75.4105 174° South 396 456 15,000 3,000 Climbing FlightAware ADS-B
Tue 07:14:55 PM 39.3874 -75.4035 174° South 406 467 16,400 1,770 Climbing FlightAware ADS-B
Tue 07:15:26 PM 39.3282 -75.3960 174° South 417 480 16,800 871 Climbing FlightAware ADS-B
Tue 07:15:57 PM 39.2680 -75.3884 174° South 416 479 17,300 1,826 Climbing FlightAware ADS-B
Tue 07:16:12 PM 39.2385 -75.3847 174° South 418 481 18,200 3,360 Climbing FlightAware ADS-B
Tue 07:16:47 PM 39.1706 -75.3859 181° South 418 481 20,100 2,936 Climbing FlightAware ADS-B
Tue 07:17:46 PM 39.0557 -75.4031 187° South 426 490 22,800 2,637 Climbing FlightAware ADS-B
Tue 07:18:18 PM 38.9920 -75.4131 187° South 440 506 24,100 2,435 Climbing FlightAware ADS-B
Tue 07:18:55 PM 38.9144 -75.4251 187° South 450 518 25,600 2,348 Climbing FlightAware ADS-B
Tue 07:19:27 PM 38.8493 -75.4349 187° South 457 526 26,800 2,123 Climbing FlightAware ADS-B
Tue 07:20:00 PM 38.7786 -75.4455 187° South 465 535 27,900 1,938 Climbing FlightAware ADS-B
Tue 07:20:32 PM 38.7097 -75.4558 187° South 472 543 28,900 2,156 Climbing FlightAware ADS-B
Tue 07:21:04 PM 38.6408 -75.4662 187° South 472 543 30,200 2,531 Climbing FlightAware ADS-B
Tue 07:21:36 PM 38.5716 -75.4764 187° South 468 539 31,600 2,516 Climbing FlightAware ADS-B
Tue 07:22:06 PM 38.5074 -75.4861 187° South 465 535 32,800 2,226 Climbing FlightAware ADS-B
Tue 07:22:38 PM 38.4384 -75.4965 187° South 464 534 33,900 1,143 Climbing FlightAware ADS-B
Tue 07:23:09 PM 38.3714 -75.5081 188° South 470 541 34,000 95 Climbing FlightAware ADS-B
Tue 07:23:41 PM 38.3074 -75.5345 198° South 468 539 34,000  Level FlightAware ADS-B
Tue 07:24:08 PM 38.2533 -75.5667 205° Southwest 464 534 34,000  Level FlightAware ADS-B
Tue 07:24:40 PM 38.1939 -75.6044 207° Southwest 463 533 34,000  Level FlightAware ADS-B
Tue 07:25:12 PM 38.1315 -75.6440 207° Southwest 463 533 34,000  Level FlightAware ADS-B
Tue 07:26:13 PM 38.0153 -75.7168 206° Southwest 462 532 34,000 568 Level FlightAware ADS-B
Tue 07:26:47 PM 37.9504 -75.7569 206° Southwest 458 527 34,900 1,688 Climbing FlightAware ADS-B
Tue 07:27:17 PM 37.8940 -75.7918 206° Southwest 451 519 35,800 1,569 Climbing FlightAware ADS-B
Tue 07:27:52 PM 37.8290 -75.8320 206° Southwest 457 526 36,600 1,612 Climbing FlightAware ADS-B
Tue 07:28:24 PM 37.7677 -75.8698 206° Southwest 451 519 37,600 1,313 Climbing FlightAware ADS-B
Tue 07:28:56 PM 37.7076 -75.9069 206° Southwest 457 526 38,000 369 Climbing FlightAware ADS-B
Tue 07:29:29 PM 37.6455 -75.9452 206° Southwest 459 528 38,000  Level FlightAware ADS-B
Tue 07:30:22 PM 37.5470 -76.0060 206° Southwest 452 520 38,000  Level FlightAware ADS-B
Tue 07:31:02 PM 37.4730 -76.0510 206° Southwest 451 519 38,000  Level FlightAware ADS-B
Tue 07:31:47 PM 37.3930 -76.0990 205° Southwest 457 526 38,000  Level FlightAware ADS-B
Tue 07:32:22 PM 37.3240 -76.1420 206° Southwest 456 525 38,000 70 Level FlightAware ADS-B
Tue 07:33:13 PM 37.2189 -76.2056 206° Southwest 455 524 38,100 370 Climbing FlightAware ADS-B
Tue 07:33:43 PM 37.1614 -76.2405 206° Southwest 457 526 38,500 957 Climbing FlightAware ADS-B
Tue 07:34:47 PM 37.0570 -76.3040 206° Southwest 457 526 39,600 1,183 Climbing FlightAware ADS-B
Tue 07:34:54 PM 37.0254 -76.3227 205° Southwest 457 526 39,900 558 Climbing FlightAware ADS-B
Tue 07:35:30 PM 36.9585 -76.3630 206° Southwest 456 525 40,000 76 Climbing FlightAware ADS-B
Tue 07:36:13 PM 36.8769 -76.4121 206° Southwest 453 521 40,000  Level FlightAware ADS-B
Tue 07:36:57 PM 36.7938 -76.4620 206° Southwest 452 520 40,000  Level FlightAware ADS-B
Tue 07:37:37 PM 36.7470 -76.4900 206° Southwest 452 520 40,000  Level FlightAware ADS-B
Tue 07:38:27 PM 36.6530 -76.5470 206° Southwest 451 519 40,000  Level FlightAware ADS-B
Tue 07:39:07 PM 36.5890 -76.5860 206° Southwest 451 519 40,000  Level FlightAware ADS-B
Tue 07:39:57 PM 36.5090 -76.6340 206° Southwest 451 519 40,000  Level FlightAware ADS-B
Tue 07:40:37 PM 36.4460 -76.6730 206° Southwest 451 519 40,000  Level FlightAware ADS-B
Tue 07:41:17 PM 36.3820 -76.7110 206° Southwest 451 519 40,000  Level FlightAware ADS-B
Tue 07:41:57 PM 36.3180 -76.7500 206° Southwest 451 519 40,000  Level FlightAware ADS-B
Tue 07:42:37 PM 36.2540 -76.7880 206° Southwest 451 519 40,000  Level FlightAware ADS-B
Tue 07:43:27 PM 36.1750 -76.8370 207° Southwest 451 519 40,000  Level FlightAware ADS-B
Tue 07:44:07 PM 36.1110 -76.8750 206° Southwest 451 519 40,000  Level FlightAware ADS-B
Tue 07:44:47 PM 36.0470 -76.9140 206° Southwest 451 519 40,000  Level FlightAware ADS-B
Tue 07:45:27 PM 35.9830 -76.9520 206° Southwest 451 519 40,000  Level FlightAware ADS-B
Tue 07:46:07 PM 35.9190 -76.9910 206° Southwest 451 519 40,000  Level FlightAware ADS-B
Tue 07:46:57 PM 35.8400 -77.0380 206° Southwest 451 519 40,000  Level FlightAware ADS-B
Tue 07:47:37 PM 35.7760 -77.0770 206° Southwest 451 519 40,000  Level FlightAware ADS-B
Tue 07:48:46 PM 35.4772 -77.2319 206° Southwest 446 513 40,000  Level Washington Center
Tue 07:49:46 PM 35.3636 -77.2986 206° Southwest 446 513 40,000  Level Washington Center
Tue 07:50:46 PM 35.2500 -77.3647 205° Southwest 446 513 40,000  Level Washington Center
Tue 07:51:46 PM 35.1342 -77.4283 204° Southwest 446 513 40,000  Level Washington Center
Tue 07:52:46 PM 35.0225 -77.4942 206° Southwest 446 513 40,000  Level Washington Center
Tue 07:53:46 PM 34.9067 -77.5600 205° Southwest 451 519 40,000  Level Washington Center
Tue 07:54:46 PM 34.7825 -77.6353 206° Southwest 451 519 40,000  Level Washington Center
Tue 07:55:46 PM 34.6686 -77.6981 204° Southwest 451 519 40,000  Level Washington Center
Tue 07:57:43 PM 34.4439 -77.8269 205° Southwest 447 514 40,000  Level Jacksonville Center
Tue 07:58:43 PM 34.3233 -77.8869 202° Southwest 457 526 40,000  Level Jacksonville Center
Tue 07:59:43 PM 34.1975 -77.9242 194° South 469 540 40,000  Level Jacksonville Center
Tue 08:00:43 PM 34.0633 -77.9569 191° South 484 557 40,000  Level Jacksonville Center
Tue 08:01:43 PM 33.9333 -77.9969 194° South 484 557 40,000  Level Jacksonville Center
Tue 08:02:43 PM 33.8072 -78.0289 192° South 481 554 40,000  Level Jacksonville Center
Tue 08:03:43 PM 33.6794 -78.0683 194° South 474 545 40,000  Level Jacksonville Center
Tue 08:04:43 PM 33.5661 -78.1019 194° South 474 545 40,000  Level Jacksonville Center
Tue 08:05:43 PM 33.4381 -78.1389 194° South 474 545 40,000  Level Jacksonville Center
Tue 08:06:43 PM 33.3100 -78.1731 193° South 474 545 40,000  Level Jacksonville Center
Tue 08:07:43 PM 33.1819 -78.2094 193° South 469 540 40,000  Level Jacksonville Center
Tue 08:08:43 PM 33.0539 -78.2458 193° South 469 540 40,000  Level Jacksonville Center
Tue 08:09:43 PM 32.9236 -78.2822 193° South 469 540 40,000  Level Jacksonville Center
Tue 08:10:43 PM 32.7978 -78.3161 193° South 469 540 40,000  Level Jacksonville Center
Tue 08:11:43 PM 32.6697 -78.3544 194° South 469 540 40,000  Level Jacksonville Center
Tue 08:12:43 PM 32.5436 -78.3881 193° South 469 540 40,000  Level Jacksonville Center
Tue 08:13:43 PM 32.4175 -78.4236 193° South 469 540 40,000  Level Jacksonville Center
Tue 08:14:43 PM 32.2917 -78.4642 195° South 469 540 40,000  Level Jacksonville Center
Tue 08:15:43 PM 32.1675 -78.4997 194° South 469 540 40,000  Level Jacksonville Center
Tue 08:16:43 PM 32.0394 -78.5378 194° South 469 540 40,000  Level Jacksonville Center
Tue 08:17:43 PM 31.9133 -78.5731 193° South 469 540 40,000  Level Jacksonville Center
Tue 08:18:43 PM 31.7872 -78.6108 194° South 469 540 40,000  Level Jacksonville Center
Tue 08:19:43 PM 31.6631 -78.6433 193° South 469 540 40,000  Level Jacksonville Center
Tue 08:20:43 PM 31.5369 -78.6808 194° South 469 540 40,000  Level Jacksonville Center
Tue 08:21:43 PM 31.4108 -78.7181 194° South 474 545 40,000  Level Jacksonville Center
Tue 08:22:43 PM 31.2828 -78.7531 193° South 469 540 40,000  Level Jacksonville Center
Tue 08:23:43 PM 31.1422 -78.7956 195° South 469 540 40,000  Level Jacksonville Center
Tue 08:24:43 PM 31.0117 -78.8278 192° South 483 556 40,000  Level Jacksonville Center
Tue 08:25:43 PM 30.8875 -78.8647 194° South 473 544 40,000  Level Jacksonville Center
Tue 08:26:43 PM 30.7636 -78.9014 194° South 473 544 40,000  Level Jacksonville Center
Tue 08:27:43 PM 30.6353 -78.9381 194° South 473 544 40,000  Level Jacksonville Center
Tue 08:28:56 PM 30.4833 -78.9781 193° South 467 537 40,000  Level Miami Center
Tue 08:29:55 PM 30.3661 -79.0239 199° South 467 537 40,000  Level Miami Center
Tue 08:30:56 PM 30.2422 -79.0742 199° South 467 537 40,000  Level Miami Center
Tue 08:31:56 PM 30.1225 -79.1269 201° Southwest 467 537 40,000  Level Miami Center
Tue 08:32:55 PM 30.0089 -79.1939 207° Southwest 467 537 40,000  Level Miami Center
Tue 08:33:56 PM 29.9075 -79.2756 215° Southwest 461 531 40,000  Level Miami Center
Tue 08:34:56 PM 29.8122 -79.3569 217° Southwest 450 518 40,000  Level Miami Center
Tue 08:35:55 PM 29.7128 -79.4456 218° Southwest 450 518 40,000 -101 Level Miami Center
Tue 08:36:55 PM 29.6153 -79.5314 217° Southwest 450 518 39,800 -1,250 Descending Miami Center
Tue 08:37:55 PM 29.5175 -79.6197 218° Southwest 450 518 37,500 -2,582 Descending Miami Center
Tue 08:43:37 PM 28.9560 -80.0950 218° Southwest 427 491 22,500 -2,865 Descending FlightAware ADS-B
Tue 08:44:12 PM 28.9120 -80.1660 235° Southwest 408 470 19,500 -2,753 Descending FlightAware ADS-B
Tue 08:45:02 PM 28.8830 -80.2570 250° West 401 461 18,600 -2,211 Descending FlightAware ADS-B
Tue 08:45:47 PM 28.8540 -80.3510 251° West 401 461 16,000 -3,388 Descending FlightAware ADS-B
Tue 08:46:27 PM 28.8320 -80.4310 253° West 396 456 13,800 -1,553 Descending FlightAware ADS-B
Tue 08:47:12 PM 28.8170 -80.5290 260° West 398 458 13,800 -424 Level FlightAware ADS-B
Tue 08:47:52 PM 28.7930 -80.6090 251° West 393 452 13,200 -1,575 Descending FlightAware ADS-B
Tue 08:48:32 PM 28.7490 -80.6750 233° Southwest 379 436 11,700 -2,320 Descending FlightAware ADS-B
Tue 08:49:07 PM 28.7110 -80.7300 232° Southwest 370 426 10,300 -1,900 Descending FlightAware ADS-B
Tue 08:49:32 PM 28.6850 -80.7670 231° Southwest 369 425 9,800 -600 Descending FlightAware ADS-B
Tue 08:49:57 PM 28.6620 -80.7990 231° Southwest 369 425 9,800  Level FlightAware ADS-B
Tue 08:50:27 PM 28.6250 -80.8530 232° Southwest 369 425 9,800  Level FlightAware ADS-B
Tue 08:50:52 PM 28.5990 -80.8900 231° Southwest 369 425 9,800  Level FlightAware ADS-B
Tue 08:51:22 PM 28.5670 -80.9370 232° Southwest 370 426 9,800  Level FlightAware ADS-B
Tue 08:51:52 PM 28.5350 -80.9820 231° Southwest 338 389 9,800  Level FlightAware ADS-B
Tue 08:52:17 PM 28.5130 -81.0140 232° Southwest 301 346 9,800 -545 Level FlightAware ADS-B
Tue 08:52:47 PM 28.4880 -81.0500 232° Southwest 283 326 9,300 -1,418 Descending FlightAware ADS-B
Tue 08:53:12 PM 28.4680 -81.0790 232° Southwest 287 330 8,500 -1,964 Descending FlightAware ADS-B
Tue 08:53:42 PM 28.4430 -81.1140 231° Southwest 284 327 7,500 -1,900 Descending FlightAware ADS-B
Tue 08:54:12 PM 28.4180 -81.1500 232° Southwest 274 315 6,600 -1,745 Descending FlightAware ADS-B
Tue 08:54:37 PM 28.3970 -81.1760 227° Southwest 280 322 5,900 -1,800 Descending FlightAware ADS-B
Tue 08:54:52 PM 28.3780 -81.1860 205° Southwest 283 326 5,400 -1,800 Descending FlightAware ADS-B
Tue 08:55:07 PM 28.3590 -81.1880 185° South 277 319 5,000 -1,855 Descending FlightAware ADS-B
Tue 08:55:47 PM 28.3070 -81.1890 181° South 285 328 3,700 -1,855 Descending FlightAware ADS-B
Tue 08:56:02 PM 28.2890 -81.2000 208° Southwest 273 314 3,300 -1,600 Descending FlightAware ADS-B
Tue 08:56:17 PM 28.2780 -81.2170 234° Southwest 263 303 2,900 -1,440 Descending FlightAware ADS-B
Tue 08:56:27 PM 28.2750 -81.2310 256° West 256 295 2,700 -1,200 Descending FlightAware ADS-B
Tue 08:56:57 PM 28.2860 -81.2640 291° West 226 260 2,100 -900 Descending FlightAware ADS-B
Tue 08:57:27 PM 28.3020 -81.2930 302° West 194 223 1,800 -300 Descending FlightAware ADS-B
Tue 08:57:57 PM 28.3170 -81.3160 307° West 184 212 1,800 -267 Level FlightAware ADS-B
Tue 08:58:12 PM 28.3280 -81.3220 334° Northwest 168 193 1,600 -750 Descending FlightAware ADS-B
Tue 08:58:37 PM 28.3470 -81.3210 North 148 170 1,300 -960 Descending FlightAware ADS-B
Tue 08:59:02 PM 28.3640 -81.3220 357° North 128 147 800 -764 Descending FlightAware ADS-B
Tue 08:59:32 PM 28.3810 -81.3220 360° North 129 148 600 -560 Descending FlightAware ADS-B
Tue 09:00:17 PM 28.4090 -81.3220 360° North 131 151 100 -667 Descending FlightAware ADS-B

Login

Don't have an account? Register now (free) for customized features, flight alerts, and more!